Time;durP1;ratioP1;P1;durP2;ratioP2;P2;SDS_P1;SDS_P2;PMS_P1;PMS_P2;Temp;Humidity;BMP_temperature;BMP_pressure;BME280_temperature;BME280_humidity;BME280_pressure;Samples;Min_cycle;Max_cycle;Signal;HPM_P1;HPM_P2
2023/06/20 00:02:22;;;;;;;10.68;6.85;;;;;;;26.15;55.23;100834.53;4964474;28;20037;-86
2023/06/20 00:05:14;;;;;;;12.32;7.80;;;;;;;25.92;56.25;100828.81;4964936;28;20049;-85
2023/06/20 00:08:09;;;;;;;17.70;8.13;;;;;;;25.81;56.80;100831.75;4967739;28;20037;-86
2023/06/20 00:11:03;;;;;;;10.35;7.53;;;;;;;25.84;56.51;100835.72;4957649;28;20051;-87
2023/06/20 00:13:54;;;;;;;18.45;8.18;;;;;;;25.74;56.90;100834.63;4965012;28;20049;-87
2023/06/20 00:16:48;;;;;;;8.85;6.90;;;;;;;25.68;57.22;100832.72;4953214;28;20528;-86
2023/06/20 00:19:38;;;;;;;;;;;;;;;25.61;57.42;100838.34;4952228;28;20331;-86
2023/06/20 00:22:27;;;;;;;9.88;7.07;;;;;;;25.65;57.38;100839.13;4959063;28;19914;-86
2023/06/20 00:25:17;;;;;;;12.23;8.23;;;;;;;25.55;57.71;100836.00;4964330;28;20119;-86
2023/06/20 00:28:12;;;;;;;17.13;7.40;;;;;;;25.54;58.72;100845.56;4974800;28;20069;-87
2023/06/20 00:31:04;;;;;;;;;;;;;;;25.53;59.19;100843.97;4981413;28;20504;-87
2023/06/20 00:33:59;;;;;;;15.35;7.75;;;;;;;25.52;59.07;100836.03;5006579;28;19914;-87
2023/06/20 00:36:51;;;;;;;;;;;;;;;25.56;58.70;100828.44;4984299;28;20520;-84
2023/06/20 00:39:44;;;;;;;12.07;8.82;;;;;;;25.50;59.09;100830.88;4994850;28;19913;-86
2023/06/20 00:42:39;;;;;;;11.63;9.05;;;;;;;25.53;58.74;100832.03;4946628;28;20054;-86
2023/06/20 00:45:37;;;;;;;10.95;8.10;;;;;;;25.40;59.48;100831.75;4964252;28;20652;-86
2023/06/20 00:48:32;;;;;;;17.50;8.40;;;;;;;25.36;59.64;100833.00;4963923;28;20050;-86
2023/06/20 00:51:28;;;;;;;13.20;8.30;;;;;;;25.36;59.30;100833.00;4975934;28;20053;-86
2023/06/20 00:54:22;;;;;;;11.98;7.93;;;;;;;25.27;59.60;100827.13;4964288;28;20058;-86
2023/06/20 00:57:17;;;;;;;12.50;9.70;;;;;;;25.26;59.41;100823.56;4977078;28;20066;-86
2023/06/20 01:00:12;;;;;;;12.48;8.27;;;;;;;25.34;59.21;100819.53;4966616;28;20058;-86
2023/06/20 01:03:06;;;;;;;14.50;8.18;;;;;;;25.29;58.87;100816.41;4957283;28;20053;-86
2023/06/20 01:06:17;;;;;;;9.65;8.55;;;;;;;25.18;59.35;100805.34;4981035;28;20037;-86
2023/06/20 01:09:26;;;;;;;15.75;9.90;;;;;;;25.18;59.36;100801.78;4948930;28;20058;-84
2023/06/20 01:12:28;;;;;;;12.80;8.35;;;;;;;25.10;59.67;100801.84;4952553;28;20049;-87
2023/06/20 01:15:25;;;;;;;;;;;;;;;25.02;59.83;100805.09;4982879;28;20051;-86
2023/06/20 01:18:32;;;;;;;13.70;9.27;;;;;;;25.00;59.91;100801.94;4982971;28;19917;-86
2023/06/20 01:21:31;;;;;;;13.50;10.00;;;;;;;24.95;60.01;100797.59;4971715;28;20050;-87
2023/06/20 01:24:35;;;;;;;22.70;11.00;;;;;;;24.87;60.33;100800.84;4977669;28;20038;-86
2023/06/20 01:27:38;;;;;;;15.43;10.35;;;;;;;24.91;60.05;100796.06;4983490;28;20038;-86
2023/06/20 01:30:38;;;;;;;16.67;9.63;;;;;;;24.88;60.45;100805.25;4980206;28;20043;-87
2023/06/20 01:33:40;;;;;;;18.52;10.90;;;;;;;24.80;60.62;100795.31;4956018;28;20050;-86
2023/06/20 01:36:38;;;;;;;11.98;10.23;;;;;;;24.74;60.79;100791.41;4957255;28;20385;-85
2023/06/20 01:39:41;;;;;;;11.98;8.75;;;;;;;24.66;61.01;100802.59;4974443;28;20047;-85
2023/06/20 01:42:40;;;;;;;17.40;9.77;;;;;;;24.64;61.32;100798.63;4970535;28;20046;-85
2023/06/20 01:45:36;;;;;;;12.57;8.75;;;;;;;24.56;61.50;100795.13;4973592;28;20042;-85
2023/06/20 01:48:32;;;;;;;13.32;9.88;;;;;;;24.60;61.17;100793.09;4958867;28;20062;-86
2023/06/20 01:51:28;;;;;;;15.43;9.43;;;;;;;24.48;61.84;100784.47;4983359;28;20050;-85
2023/06/20 01:54:20;;;;;;;14.55;9.35;;;;;;;24.42;62.17;100789.66;4954351;28;20049;-85
2023/06/20 01:57:11;;;;;;;18.42;9.38;;;;;;;24.39;62.16;100778.53;4970160;28;20134;-87
2023/06/20 02:00:07;;;;;;;14.82;9.95;;;;;;;24.34;62.14;100787.31;4990155;28;20106;-88
2023/06/20 02:03:06;;;;;;;13.35;9.05;;;;;;;24.40;61.67;100791.25;4965559;28;20062;-86
2023/06/20 02:05:56;;;;;;;12.23;8.93;;;;;;;24.40;61.64;100783.72;4965503;28;20034;-87
2023/06/20 02:08:45;;;;;;;12.70;9.38;;;;;;;24.41;61.44;100790.06;4968282;28;20449;-87
2023/06/20 02:11:39;;;;;;;16.23;9.32;;;;;;;24.44;61.22;100787.25;4966976;28;20046;-87
2023/06/20 02:14:33;;;;;;;16.00;9.35;;;;;;;24.46;60.81;100778.50;4977099;28;20054;-87
2023/06/20 02:17:27;;;;;;;17.27;9.52;;;;;;;24.42;60.95;100783.31;4982127;28;20264;-87
2023/06/20 02:20:20;;;;;;;16.70;10.88;;;;;;;24.39;61.00;100775.78;4931741;29;20054;-87
2023/06/20 02:23:15;;;;;;;19.67;10.38;;;;;;;24.45;61.04;100788.03;4947509;29;20489;-87
2023/06/20 02:26:08;;;;;;;14.82;10.35;;;;;;;24.43;60.97;100782.13;4948856;29;20043;-87
2023/06/20 02:29:01;;;;;;;12.48;10.90;;;;;;;24.39;61.11;100790.47;4984944;28;20043;-87
2023/06/20 02:32:00;;;;;;;13.90;10.25;;;;;;;24.45;60.55;100794.41;4982109;28;20039;-88
2023/06/20 02:34:56;;;;;;;14.40;11.13;;;;;;;24.44;60.91;100792.00;4979828;28;20034;-87
2023/06/20 02:37:48;;;;;;;14.73;11.55;;;;;;;24.40;61.36;100799.59;4984164;28;20039;-87
2023/06/20 02:40:42;;;;;;;17.88;9.57;;;;;;;24.39;61.23;100803.56;4981578;28;20045;-87
2023/06/20 02:43:37;;;;;;;11.35;7.80;;;;;;;24.45;61.30;100799.16;4972963;28;20066;-87
2023/06/20 02:46:38;;;;;;;;;;;;;;;24.30;61.69;100801.25;4958455;28;20047;-87
2023/06/20 02:50:07;;;;;;;16.48;10.65;;;;;;;24.24;62.23;100806.44;4961635;28;19914;-87
2023/06/20 02:53:22;;;;;;;13.05;9.32;;;;;;;24.16;62.55;100801.31;4964714;28;20035;-87
2023/06/20 02:56:19;;;;;;;12.25;9.88;;;;;;;24.14;62.82;100803.69;4977636;28;20074;-85
2023/06/20 02:59:13;;;;;;;16.65;10.18;;;;;;;24.08;62.92;100800.53;4952639;28;20050;-86
2023/06/20 03:02:10;;;;;;;16.45;10.77;;;;;;;24.13;63.13;100811.22;4979459;28;20493;-86
2023/06/20 03:05:07;;;;;;;13.52;9.85;;;;;;;24.14;63.16;100810.03;4966488;28;20043;-85
2023/06/20 03:08:06;;;;;;;11.35;9.32;;;;;;;24.14;62.93;100815.59;4981013;28;20069;-87
2023/06/20 03:11:01;;;;;;;16.67;9.40;;;;;;;24.13;62.47;100821.56;4984321;28;20045;-86
2023/06/20 03:13:53;;;;;;;18.77;10.23;;;;;;;24.12;62.69;100831.09;4966453;28;20528;-86
2023/06/20 03:16:47;;;;;;;16.52;9.68;;;;;;;24.07;62.93;100828.75;4962387;28;20421;-86
2023/06/20 03:19:43;;;;;;;15.68;10.23;;;;;;;24.13;62.67;100824.31;4966145;28;20054;-85
2023/06/20 03:22:40;;;;;;;14.35;8.55;;;;;;;24.33;61.82;100836.56;4985937;23;20053;-80
2023/06/20 03:25:35;;;;;;;16.85;10.23;;;;;;;24.60;60.59;100843.16;4973863;28;20059;-81
2023/06/20 03:28:29;;;;;;;19.98;10.95;;;;;;;24.51;61.27;100842.81;4946135;28;20039;-81
2023/06/20 03:31:24;;;;;;;15.43;10.80;;;;;;;24.51;61.07;100856.72;4956297;28;20042;-81
2023/06/20 03:34:18;;;;;;;14.15;10.88;;;;;;;24.46;61.26;100859.13;4966563;28;20038;-81
2023/06/20 03:37:13;;;;;;;11.07;7.15;;;;;;;24.54;60.79;100861.47;4958480;28;20042;-79
2023/06/20 03:40:08;;;;;;;23.95;12.18;;;;;;;24.56;61.00;100864.63;4975235;28;20546;-80
2023/06/20 03:43:03;;;;;;;43.30;13.40;;;;;;;24.64;60.69;100876.50;4971027;28;20654;-79
2023/06/20 03:45:58;;;;;;;20.27;15.50;;;;;;;24.51;61.70;100876.19;4976272;28;20401;-80
2023/06/20 03:48:50;;;;;;;22.85;14.43;;;;;;;24.51;61.61;100867.06;4971786;28;20421;-78
2023/06/20 03:51:44;;;;;;;23.75;12.75;;;;;;;24.61;61.52;100872.56;4959210;28;20039;-79
2023/06/20 03:54:37;;;;;;;19.95;14.13;;;;;;;24.72;60.66;100872.50;4962411;28;20047;-77
2023/06/20 03:57:31;;;;;;;15.13;7.10;;;;;;;24.89;59.65;100868.81;4941803;29;20047;-80
2023/06/20 04:00:23;;;;;;;15.85;8.02;;;;;;;25.06;58.86;100875.44;4969365;28;20421;-81
2023/06/20 04:03:18;;;;;;;22.48;14.43;;;;;;;25.02;59.47;100874.69;4960382;28;20054;-78
2023/06/20 04:06:13;;;;;;;20.40;13.95;;;;;;;24.97;60.02;100872.34;4951836;28;20043;-79
2023/06/20 04:09:05;;;;;;;20.10;16.10;;;;;;;24.93;59.79;100874.34;4967096;28;20042;-79
2023/06/20 04:11:57;;;;;;;20.45;17.08;;;;;;;24.94;60.36;100879.50;4970192;28;20038;-79
2023/06/20 04:14:52;;;;;;;24.55;15.57;;;;;;;24.87;60.42;100887.91;4984697;28;20047;-80
2023/06/20 04:17:50;;;;;;;20.52;16.45;;;;;;;24.83;60.69;100881.56;4974821;28;20042;-80
2023/06/20 04:20:44;;;;;;;23.85;17.17;;;;;;;24.58;61.98;100881.69;4970879;28;20514;-81
2023/06/20 04:23:36;;;;;;;21.88;16.77;;;;;;;24.32;62.73;100871.13;4974872;28;20046;-79
2023/06/20 04:26:32;;;;;;;20.17;15.77;;;;;;;24.32;63.30;100875.91;4973526;28;20039;-78
2023/06/20 04:29:21;;;;;;;;;;;;;;;24.22;63.59;100871.97;4966625;28;20050;-80
2023/06/20 04:32:16;;;;;;;24.92;15.93;;;;;;;24.17;63.93;100869.63;4961650;28;19918;-79
2023/06/20 04:35:10;;;;;;;20.92;15.95;;;;;;;24.16;64.03;100866.03;4954354;28;20440;-78
2023/06/20 04:38:03;;;;;;;20.20;15.73;;;;;;;24.17;64.20;100858.50;4958867;28;20051;-79
2023/06/20 04:40:57;;;;;;;22.38;16.52;;;;;;;24.16;64.25;100848.56;4954929;28;20035;-80
2023/06/20 04:43:49;;;;;;;23.23;16.95;;;;;;;24.19;64.37;100845.78;4970731;28;20706;-79
2023/06/20 04:46:44;;;;;;;18.25;10.52;;;;;;;24.40;63.21;100844.06;4951304;28;20410;-80
2023/06/20 04:49:40;;;;;;;19.48;9.98;;;;;;;24.72;60.85;100844.66;4971141;28;20043;-79
2023/06/20 04:52:34;;;;;;;22.63;15.77;;;;;;;24.90;60.87;100852.91;4971153;28;20057;-82
2023/06/20 04:55:29;;;;;;;29.27;14.18;;;;;;;24.85;61.62;100859.66;4963475;28;20035;-81
2023/06/20 04:58:23;;;;;;;19.85;13.55;;;;;;;24.78;62.19;100865.28;4969071;28;20047;-81
2023/06/20 05:01:18;;;;;;;15.77;12.65;;;;;;;24.81;62.16;100874.81;4971734;28;20047;-78
2023/06/20 05:04:10;;;;;;;;;;;;;;;24.81;61.98;100874.81;4973753;28;20068;-80
2023/06/20 05:07:02;;;;;;;16.45;12.57;;;;;;;24.82;61.64;100870.81;4964131;28;19914;-81
2023/06/20 05:09:58;;;;;;;15.43;10.52;;;;;;;24.82;61.26;100884.75;4972260;28;20034;-79
2023/06/20 05:12:50;;;;;;;;;;;;;;;24.85;61.23;100881.13;4958173;28;20414;-80
2023/06/20 05:15:45;;;;;;;18.92;12.52;;;;;;;24.85;61.57;100889.47;4965372;28;19918;-80
2023/06/20 05:18:34;;;;;;;18.85;14.27;;;;;;;24.87;61.29;100892.66;4969898;28;20417;-80
2023/06/20 05:21:29;;;;;;;23.02;14.27;;;;;;;24.89;61.08;100898.63;4936239;28;20043;-82
2023/06/20 05:24:24;;;;;;;26.63;13.90;;;;;;;24.91;61.08;100896.22;4966158;28;20043;-81
2023/06/20 05:27:16;;;;;;;24.35;16.63;;;;;;;24.91;61.17;100891.44;4953901;28;20047;-79
2023/06/20 05:30:11;;;;;;;30.13;17.13;;;;;;;24.94;61.16;100892.66;4957642;28;20562;-79
2023/06/20 05:33:05;;;;;;;20.88;15.35;;;;;;;24.97;61.86;100889.81;4975500;28;20043;-79
2023/06/20 05:35:57;;;;;;;19.40;13.43;;;;;;;24.99;61.28;100887.41;4972252;28;20043;-81
2023/06/20 05:38:52;;;;;;;21.92;14.82;;;;;;;25.00;61.09;100882.63;4967417;28;20034;-79
2023/06/20 05:41:41;;;;;;;20.55;15.02;;;;;;;25.01;61.83;100882.22;4975302;28;20668;-80
2023/06/20 05:44:36;;;;;;;38.05;14.77;;;;;;;25.06;61.63;100886.56;4949700;28;20513;-82
2023/06/20 05:47:31;;;;;;;30.98;15.73;;;;;;;25.09;61.90;100885.75;4957696;28;20035;-84
2023/06/20 05:50:25;;;;;;;25.23;15.98;;;;;;;25.06;61.19;100887.38;4962324;28;20042;-80
2023/06/20 05:53:20;;;;;;;21.30;15.50;;;;;;;25.09;61.16;100885.75;4971799;28;20043;-80
2023/06/20 05:56:15;;;;;;;20.42;15.07;;;;;;;25.12;60.61;100890.50;4957187;28;20047;-79
2023/06/20 05:59:09;;;;;;;20.90;15.90;;;;;;;25.13;60.31;100875.38;4956802;28;20039;-78
2023/06/20 06:02:02;;;;;;;;;;;;;;;25.18;59.93;100876.94;4961689;28;20039;-80
2023/06/20 06:04:56;;;;;;;21.00;15.55;;;;;;;25.21;59.89;100884.44;4951139;28;19914;-80
2023/06/20 06:07:51;;;;;;;24.88;17.55;;;;;;;25.21;60.12;100882.47;4973398;28;20039;-80
2023/06/20 06:10:45;;;;;;;24.08;16.65;;;;;;;25.21;59.87;100881.66;4978397;28;20047;-80
2023/06/20 06:13:37;;;;;;;18.75;15.43;;;;;;;25.25;60.21;100894.34;4959763;28;20039;-79
2023/06/20 06:16:32;;;;;;;23.80;16.65;;;;;;;25.29;60.02;100895.13;4970109;28;20042;-79
2023/06/20 06:19:26;;;;;;;24.35;15.57;;;;;;;25.31;60.05;100889.94;4971975;28;20082;-79
2023/06/20 06:22:20;;;;;;;23.05;16.60;;;;;;;25.36;60.21;100883.13;4954590;28;20042;-80
2023/06/20 06:25:14;;;;;;;29.40;18.20;;;;;;;25.39;60.31;100891.47;4965027;28;20421;-81
2023/06/20 06:28:06;;;;;;;;;;;;;;;25.42;59.85;100899.00;4962895;28;20501;-78
2023/06/20 06:31:01;;;;;;;26.08;18.48;;;;;;;25.45;59.93;100898.16;4960674;28;19918;-80
2023/06/20 06:34:00;;;;;;;23.45;18.40;;;;;;;25.47;59.48;100900.53;4973969;28;20034;-79
2023/06/20 06:36:55;;;;;;;22.08;16.55;;;;;;;25.50;59.20;100900.50;4974725;28;20047;-79
2023/06/20 06:39:50;;;;;;;24.70;16.13;;;;;;;25.54;59.30;100906.84;4974407;28;20038;-78
2023/06/20 06:42:46;;;;;;;28.58;15.98;;;;;;;25.60;59.35;100904.41;4974980;28;20043;-78
2023/06/20 06:45:41;;;;;;;30.60;18.15;;;;;;;25.59;59.06;100907.63;4973858;28;20042;-80
2023/06/20 06:48:36;;;;;;;30.38;17.70;;;;;;;25.63;58.96;100908.38;4977020;28;20046;-81
2023/06/20 06:51:30;;;;;;;23.75;17.85;;;;;;;25.62;58.50;100912.34;4974739;28;20043;-80
2023/06/20 06:54:22;;;;;;;;;;;;;;;25.71;58.56;100915.44;4974247;28;20042;-80
2023/06/20 06:57:17;;;;;;;25.27;14.88;;;;;;;25.72;58.51;100914.25;4960661;28;19918;-79
2023/06/20 07:00:11;;;;;;;18.73;15.63;;;;;;;25.74;58.52;100914.63;4973724;28;20042;-80
2023/06/20 07:03:05;;;;;;;21.43;14.30;;;;;;;25.79;58.13;100916.97;4976710;28;20051;-79
2023/06/20 07:06:00;;;;;;;18.05;13.18;;;;;;;25.83;58.28;100914.94;4974901;28;20275;-79
2023/06/20 07:08:54;;;;;;;17.17;14.40;;;;;;;25.86;57.89;100914.09;4977692;28;20043;-80
2023/06/20 07:11:49;;;;;;;22.92;14.88;;;;;;;25.88;57.96;100914.47;4975483;28;20043;-78
2023/06/20 07:14:41;;;;;;;;;;;;;;;25.90;58.01;100923.22;4974207;28;20042;-79
2023/06/20 07:17:31;;;;;;;17.45;14.35;;;;;;;25.92;57.73;100926.38;4963482;28;19922;-82
2023/06/20 07:20:26;;;;;;;16.73;12.90;;;;;;;25.94;57.91;100923.97;4961520;28;20051;-79
2023/06/20 07:23:21;;;;;;;20.48;13.50;;;;;;;25.98;57.81;100935.84;4977911;28;20043;-81
2023/06/20 07:26:13;;;;;;;24.08;15.15;;;;;;;26.02;58.08;100936.59;4973444;28;20046;-81
2023/06/20 07:29:07;;;;;;;19.05;14.98;;;;;;;26.06;58.02;100933.81;4974160;28;20047;-81
2023/06/20 07:32:02;;;;;;;23.30;16.55;;;;;;;26.08;57.90;100929.38;4974540;28;20046;-79
2023/06/20 07:34:56;;;;;;;23.65;15.32;;;;;;;26.08;58.23;100942.53;4974501;28;20046;-79
2023/06/20 07:37:52;;;;;;;19.85;14.18;;;;;;;26.08;58.11;100928.59;4973258;28;20047;-80
2023/06/20 07:40:44;;;;;;;;;;;;;;;26.11;57.88;100942.47;4962813;28;20039;-80
2023/06/20 07:43:39;;;;;;;23.23;15.68;;;;;;;26.14;57.79;100935.28;4956910;28;19922;-78
2023/06/20 07:46:33;;;;;;;20.65;14.95;;;;;;;26.14;57.55;100938.88;4961084;28;20043;-80
2023/06/20 07:49:28;;;;;;;16.55;12.68;;;;;;;26.20;57.72;100944.78;4945829;28;20039;-79
2023/06/20 07:52:22;;;;;;;14.55;12.15;;;;;;;26.23;57.55;100930.81;4969684;28;20522;-79
2023/06/20 07:55:15;;;;;;;11.00;7.88;;;;;;;26.27;57.62;100934.34;4975713;28;20042;-79
2023/06/20 07:58:09;;;;;;;12.77;10.30;;;;;;;26.30;57.27;100946.69;4973579;28;20107;-79
2023/06/20 08:01:04;;;;;;;8.10;6.90;;;;;;;26.30;57.39;100941.91;4976401;28;20055;-79
2023/06/20 08:03:56;;;;;;;;;;;;;;;26.35;56.93;100940.66;4975307;28;20050;-77
2023/06/20 08:06:51;;;;;;;18.40;13.70;;;;;;;26.36;57.57;100937.41;4981301;28;19914;-79
2023/06/20 08:09:43;;;;;;;;;;;;;;;26.42;57.31;100951.69;4975442;28;20039;-78
2023/06/20 08:12:37;;;;;;;12.07;6.97;;;;;;;26.43;56.93;100946.91;4968697;28;19914;-81
2023/06/20 08:15:31;;;;;;;13.68;9.43;;;;;;;26.46;56.72;100949.66;4977153;28;20114;-79
2023/06/20 08:18:23;;;;;;;;;;;;;;;26.49;56.88;100948.03;4974807;28;20054;-79
2023/06/20 08:21:15;;;;;;;20.13;15.40;;;;;;;26.53;57.50;100951.56;4958989;28;19918;-78
2023/06/20 08:24:10;;;;;;;19.98;15.88;;;;;;;26.51;57.09;100951.19;4965209;28;20047;-78
2023/06/20 08:27:02;;;;;;;23.52;13.93;;;;;;;26.53;56.91;100934.81;4972280;28;20030;-78
2023/06/20 08:29:57;;;;;;;16.65;13.68;;;;;;;26.63;57.27;100942.25;4976726;28;20051;-78
2023/06/20 08:32:51;;;;;;;17.95;13.55;;;;;;;26.66;57.00;100945.03;4976366;28;20039;-77
2023/06/20 08:35:43;;;;;;;20.67;14.48;;;;;;;26.70;57.03;100947.75;4965649;28;20043;-79
2023/06/20 08:38:38;;;;;;;16.98;12.02;;;;;;;26.72;56.48;100940.53;4977604;28;20497;-79
2023/06/20 08:41:30;;;;;;;;;;;;;;;26.81;56.48;100945.59;4975812;28;20038;-77
2023/06/20 08:44:24;;;;;;;12.48;10.43;;;;;;;26.83;56.38;100955.13;4978358;28;19914;-80
2023/06/20 08:47:20;;;;;;;18.30;11.13;;;;;;;26.83;55.77;100945.97;4969592;28;20039;-79
2023/06/20 08:50:12;;;;;;;19.77;9.88;;;;;;;26.83;55.60;100952.34;4974394;28;20038;-79
2023/06/20 08:53:10;;;;;;;21.42;11.95;;;;;;;26.89;55.02;100949.91;4977469;28;20062;-78
2023/06/20 08:56:05;;;;;;;13.20;10.15;;;;;;;26.95;54.59;100953.00;4975088;28;20047;-80
2023/06/20 08:58:57;;;;;;;15.00;11.10;;;;;;;26.95;54.34;100956.59;4975144;28;20043;-79
2023/06/20 09:01:46;;;;;;;14.00;9.45;;;;;;;27.03;54.63;100951.69;4974878;28;20425;-80
2023/06/20 09:04:41;;;;;;;7.35;6.55;;;;;;;27.06;54.55;100954.44;4974509;28;20521;-80
2023/06/20 09:07:36;;;;;;;;;;;;;;;27.09;54.43;100958.38;4978146;28;20061;-78
2023/06/20 09:10:30;;;;;;;15.25;11.50;;;;;;;27.08;54.14;100943.63;4975482;28;20300;-80
2023/06/20 09:13:28;;;;;;;;;;;;;;;27.15;54.02;100951.09;4973605;28;20442;-78
2023/06/20 09:16:22;;;;;;;15.88;11.15;;;;;;;27.13;54.19;100948.72;4976330;28;19914;-78
2023/06/20 09:19:17;;;;;;;8.35;6.82;;;;;;;27.16;54.15;100952.69;4990669;28;20046;-80
2023/06/20 09:22:12;;;;;;;16.20;9.55;;;;;;;27.16;53.79;100950.69;5069840;23;20062;-84
2023/06/20 09:25:06;;;;;;;13.52;10.15;;;;;;;27.24;53.27;100956.94;5006906;28;20042;-84
2023/06/20 09:28:01;;;;;;;14.65;12.02;;;;;;;27.31;52.78;100956.03;5029896;28;20038;-84
2023/06/20 09:30:56;;;;;;;20.25;12.45;;;;;;;27.35;52.93;100951.19;5012123;28;20038;-87
2023/06/20 09:33:49;;;;;;;24.02;12.07;;;;;;;27.36;53.01;100941.59;5016281;28;20042;-85
2023/06/20 09:36:42;;;;;;;8.63;6.45;;;;;;;27.39;53.03;100946.31;5018815;28;20035;-85
2023/06/20 09:39:36;;;;;;;13.93;10.05;;;;;;;27.39;53.06;100944.31;5010932;28;20053;-83
2023/06/20 09:42:31;;;;;;;25.55;16.23;;;;;;;27.41;53.16;100941.91;5011547;28;20042;-83
2023/06/20 09:45:23;;;;;;;;;;;;;;;27.49;53.53;100932.19;5012153;28;20051;-83
2023/06/20 09:48:19;;;;;;;14.73;11.18;;;;;;;27.51;53.12;100929.00;5015258;28;19917;-83
2023/06/20 09:51:14;;;;;;;9.07;6.13;;;;;;;27.56;53.06;100939.69;5012008;28;20042;-86
2023/06/20 09:54:06;;;;;;;;;;;;;;;27.56;52.89;100943.25;5009457;28;20042;-86
2023/06/20 09:57:02;;;;;;;10.07;6.88;;;;;;;27.55;52.95;100946.47;5014067;28;19936;-86
2023/06/20 09:59:57;;;;;;;20.80;15.30;;;;;;;27.61;52.67;100933.59;5015300;28;20050;-84
2023/06/20 10:02:52;;;;;;;13.40;11.18;;;;;;;27.66;52.67;100935.91;5008453;28;20042;-86
2023/06/20 10:05:48;;;;;;;19.50;14.02;;;;;;;27.70;51.44;100930.25;5012167;28;20042;-86
2023/06/20 10:08:44;;;;;;;15.43;11.93;;;;;;;27.77;51.65;100933.72;5007665;28;20038;-85
2023/06/20 10:11:38;;;;;;;20.27;14.23;;;;;;;27.82;50.77;100932.44;5010957;28;20042;-86
2023/06/20 10:14:32;;;;;;;14.35;8.30;;;;;;;27.87;50.93;100929.94;5008405;28;20046;-85
2023/06/20 10:17:35;;;;;;;;;;;;;;;27.90;50.57;100919.88;5007615;28;20577;-86
2023/06/20 10:20:39;;;;;;;210.23;22.73;;;;;;;27.91;50.68;100922.25;5010014;28;19914;-88
2023/06/20 10:23:38;;;;;;;17.73;13.23;;;;;;;27.94;49.63;100918.59;5008523;28;20038;-86
2023/06/20 10:26:37;;;;;;;15.80;11.23;;;;;;;28.00;50.08;100916.88;5010448;28;20038;-87
2023/06/20 10:29:40;;;;;;;16.75;10.32;;;;;;;28.05;50.23;100919.19;5012159;28;20042;-86
2023/06/20 10:32:35;;;;;;;11.77;7.93;;;;;;;28.07;50.11;100916.75;4989322;28;20047;-87
2023/06/20 10:35:30;;;;;;;10.38;7.63;;;;;;;28.07;50.26;100915.97;5007412;28;20045;-86
2023/06/20 10:38:25;;;;;;;11.43;7.45;;;;;;;28.07;49.91;100913.16;5004563;28;20065;-86
2023/06/20 10:41:28;;;;;;;9.32;5.88;;;;;;;28.09;50.05;100911.50;5014631;28;20045;-86
2023/06/20 10:44:33;;;;;;;8.88;6.63;;;;;;;28.11;50.06;100907.50;5008455;28;20061;-86
2023/06/20 10:47:20;;;;;;;;;;;;;;;28.12;50.35;100907.09;5013355;28;20041;-86
2023/06/20 10:50:14;;;;;;;10.77;8.07;;;;;;;28.10;49.66;100903.91;5010663;28;19913;-85
2023/06/20 10:53:08;;;;;;;6.30;5.18;;;;;;;28.11;49.99;100901.88;4997161;28;20046;-86
2023/06/20 10:56:03;;;;;;;4.67;4.00;;;;;;;28.15;49.74;100894.25;4994754;28;20061;-85
2023/06/20 10:58:55;;;;;;;9.30;6.15;;;;;;;28.16;49.92;100895.81;4989907;28;20050;-86
2023/06/20 11:01:47;;;;;;;19.77;9.05;;;;;;;28.27;48.44;100886.00;4990534;28;20062;-86
2023/06/20 11:04:42;;;;;;;12.50;9.55;;;;;;;28.42;47.82;100886.47;4990861;28;20041;-86
2023/06/20 11:07:36;;;;;;;128.07;14.13;;;;;;;28.57;46.82;100884.94;4996902;28;20057;-85
2023/06/20 11:10:28;;;;;;;;;;;;;;;28.21;50.05;100889.72;5012000;28;20043;-86
2023/06/20 11:13:23;;;;;;;14.27;8.63;;;;;;;27.91;50.52;100891.50;4990741;28;19914;-86
2023/06/20 11:16:21;;;;;;;;;;;;;;;27.72;51.09;100883.91;4980853;28;20053;-84
2023/06/20 11:19:14;;;;;;;12.70;4.85;;;;;;;27.65;51.40;100878.44;4992516;28;20385;-85
2023/06/20 11:22:08;;;;;;;21.33;9.85;;;;;;;27.78;51.34;100873.81;4999878;28;20046;-84
2023/06/20 11:25:03;;;;;;;11.13;7.38;;;;;;;27.84;50.78;100877.66;5005743;28;20069;-83
2023/06/20 11:27:56;;;;;;;12.10;6.53;;;;;;;27.91;50.84;100866.34;5012430;28;20041;-83
2023/06/20 11:30:50;;;;;;;14.52;8.73;;;;;;;28.18;49.95;100865.44;5011779;28;20420;-84
2023/06/20 11:33:45;;;;;;;8.63;7.65;;;;;;;28.09;50.83;100874.34;5021834;28;20081;-84
2023/06/20 11:36:41;;;;;;;11.57;7.75;;;;;;;28.07;50.43;100868.41;5025319;28;20049;-84
2023/06/20 11:39:35;;;;;;;16.35;7.50;;;;;;;28.23;50.08;100867.72;5023560;28;20049;-84
2023/06/20 11:42:35;;;;;;;10.15;7.05;;;;;;;28.02;50.99;100868.91;4997760;28;20227;-84
2023/06/20 11:45:30;;;;;;;20.88;12.05;;;;;;;28.21;49.99;100864.56;4994861;28;20046;-84
2023/06/20 11:48:25;;;;;;;14.23;10.60;;;;;;;28.11;49.99;100868.34;4997729;28;20038;-85
2023/06/20 11:51:17;;;;;;;15.60;9.70;;;;;;;28.25;49.54;100857.66;4990250;28;20051;-85
2023/06/20 11:54:12;;;;;;;10.88;8.07;;;;;;;28.06;49.77;100873.22;4994481;28;20054;-83
2023/06/20 11:57:04;;;;;;;;;;;;;;;27.85;50.38;100864.47;5002298;28;20053;-84
2023/06/20 12:00:01;;;;;;;11.40;8.02;;;;;;;27.66;50.84;100863.25;4992218;28;19913;-83
2023/06/20 12:02:58;;;;;;;15.57;10.27;;;;;;;27.81;50.58;100858.16;4986813;28;20050;-83
2023/06/20 12:05:50;;;;;;;14.20;9.95;;;;;;;27.78;51.40;100859.81;4998966;28;20038;-84
2023/06/20 12:08:54;;;;;;;19.30;9.95;;;;;;;27.91;50.82;100851.56;5000734;28;20045;-83
2023/06/20 12:11:52;;;;;;;13.68;8.77;;;;;;;28.07;50.56;100843.25;5000714;28;20053;-83
2023/06/20 12:14:44;;;;;;;18.38;9.82;;;;;;;28.12;50.47;100847.56;4996895;28;20053;-85
2023/06/20 12:17:36;;;;;;;42.00;12.90;;;;;;;28.49;49.45;100844.34;4994617;28;20050;-84
2023/06/20 12:20:31;;;;;;;22.73;11.10;;;;;;;28.55;49.14;100833.44;4980752;28;20513;-85
2023/06/20 12:23:23;;;;;;;;;;;;;;;28.34;49.37;100832.66;4982907;28;20042;-85
2023/06/20 12:26:13;;;;;;;23.25;8.70;;;;;;;28.16;49.85;100832.28;5003075;28;19913;-84
2023/06/20 12:29:05;;;;;;;27.02;10.20;;;;;;;28.17;49.34;100835.88;4992843;28;20037;-85
2023/06/20 12:31:57;;;;;;;;;;;;;;;27.89;50.33;100835.22;4994258;28;20517;-86
2023/06/20 12:34:50;;;;;;;12.73;8.60;;;;;;;27.83;50.74;100825.00;4998677;28;19921;-84
2023/06/20 12:37:44;;;;;;;18.45;8.00;;;;;;;27.97;50.28;100822.69;4996922;28;20049;-82
2023/06/20 12:40:36;;;;;;;14.05;7.55;;;;;;;28.17;48.80;100825.47;4988493;28;20046;-83
2023/06/20 12:43:26;;;;;;;;;;;;;;;28.17;49.50;100819.09;4978778;28;20058;-83
2023/06/20 12:46:17;;;;;;;12.50;7.72;;;;;;;28.27;48.38;100812.47;4983173;28;19914;-84
2023/06/20 12:49:08;;;;;;;15.70;8.05;;;;;;;28.11;49.14;100816.00;4991710;28;20036;-84
2023/06/20 12:52:02;;;;;;;11.52;7.85;;;;;;;28.14;49.15;100806.00;5007040;28;20121;-83
2023/06/20 12:54:57;;;;;;;9.43;7.53;;;;;;;28.26;48.77;100808.88;4999373;28;20417;-82
2023/06/20 12:57:49;;;;;;;;;;;;;;;28.26;47.98;100803.28;4998130;28;20053;-83
2023/06/20 13:00:43;;;;;;;12.15;8.15;;;;;;;28.54;47.39;100799.06;5003100;28;19913;-83
2023/06/20 13:03:38;;;;;;;14.63;7.35;;;;;;;28.41;47.22;100807.34;5005308;28;20057;-81
2023/06/20 13:06:33;;;;;;;11.57;8.18;;;;;;;31.04;39.40;100817.56;5007768;28;20049;-83
2023/06/20 13:09:27;;;;;;;18.95;7.43;;;;;;;32.30;38.49;100815.41;5018577;28;20049;-84
2023/06/20 13:12:22;;;;;;;10.05;8.10;;;;;;;32.31;35.73;100823.38;5004151;28;20057;-81
2023/06/20 13:15:14;;;;;;;;;;;;;;;32.38;36.29;100825.13;5005787;28;20122;-84
2023/06/20 13:18:08;;;;;;;13.63;8.60;;;;;;;32.36;36.59;100824.78;5002717;28;19926;-84
2023/06/20 13:21:02;;;;;;;13.18;8.50;;;;;;;32.49;37.23;100819.84;5008590;28;20408;-84
2023/06/20 13:23:57;;;;;;;14.43;9.27;;;;;;;32.16;36.51;100822.34;5000294;28;20066;-85
2023/06/20 13:26:49;;;;;;;9.98;8.10;;;;;;;32.05;39.00;100825.53;5005606;28;20121;-85
2023/06/20 13:29:44;;;;;;;14.13;8.98;;;;;;;32.00;37.75;100825.38;4995065;28;20052;-85